Terminal Aerodrome Forecast
Issued by NWS

Home | Current Version | Previous Version | Text Only | Print | Product List | Glossary On
Versions: 1 2 3 4 5 6 7 8 9 10 11 12 13 14 15
000
FTUS43 KOAX 031742
TAFSNY
TAF
KSNY 031742Z 0318/0418 15010KT P6SM BKN100
     FM032200 15012G20KT P6SM VCTS BKN080CB
     FM040500 24007KT P6SM SCT080 BKN150
     FM041500 30012KT P6SM BKN080=

USA.gov is the U.S. government's official web portal to all federal, state and local government web resources and services.